MSC Gina — 3FLY9 — position and weather

sailwx.info

Track history (hours):
 
Tides and Currents Weather Stations Pressure Air Temp Water Temp Dewpoint Dewpoint Depression Visibility Wind Speed Wind Dir Waves Ship Positions

MSC Gina

Last reported at 2016-Sep-27 14:06 UTC. Time now 2016-Sep-27 18:57 UTC.
Position N 34°51' W 007°35'.

Length 259 m; draft 12.2 m.

Type: Ship (hazmat cat A). MMSI: 357542000.

Date/timePositionNaut miles runAvg speedWind from/ knotsBaromVisibWave heightAir tempDewpointWater temp
2016-Sep-27 14:06N 34°51' W 007°35'1018.8
2016-Sep-27 13:33N 34°59' W 007°27'22917.5
2016-Sep-27 00:28N 36°20' W 003°03'6917.5
2016-Sep-26 20:33N 36°45' W 001°43'1818.4
2016-Sep-26 19:33N 36°57' W 001°26'7518.1
2016-Sep-26 15:26N 37°50' W 000°21'9614.0
2016-Sep-26 08:34N 39°26' W 000°19'1 0.1
2016-Sep-26 02:24N 39°26' W 000°19'0 0.0
2016-Sep-26 01:33N 39°26' W 000°19'0 0.0
2016-Sep-26 00:33N 39°26' W 000°19'0 0.0
2016-Sep-25 21:33N 39°26' W 000°19'0 0.0
2016-Sep-25 17:09N 39°26' W 000°19'0 0.0
2016-Sep-25 16:27N 39°26' W 000°19'0 0.0
2016-Sep-25 15:33N 39°26' W 000°19'0 0.0
2016-Sep-25 14:33N 39°26' W 000°19'0 0.0
2016-Sep-25 12:33N 39°26' W 000°19'0 0.0
2016-Sep-25 11:33N 39°26' W 000°19'0 0.0
2016-Sep-25 10:33N 39°26' W 000°19'0 0.2
2016-Sep-25 09:33N 39°26' W 000°19'0 0.1
2016-Sep-25 07:33N 39°26' W 000°20'0 0.0
2016-Sep-25 04:27N 39°26' W 000°20'0 0.0
2016-Sep-25 00:24N 39°26' W 000°20'0 0.0
2016-Sep-24 22:33N 39°26' W 000°20'0 0.0
2016-Sep-24 21:33N 39°26' W 000°20'0 0.0
2016-Sep-24 19:33N 39°26' W 000°20'0 0.0
2016-Sep-24 18:30N 39°26' W 000°20'0 0.0
2016-Sep-24 17:33N 39°26' W 000°20'0 0.0
2016-Sep-24 16:33N 39°26' W 000°20'0 0.1
2016-Sep-24 14:33N 39°26' W 000°19'12 5.8
2016-Sep-24 12:28N 39°25' W 000°04'3 1.4
2016-Sep-24 10:08N 39°27' E 000°00'4 6.8
2016-Sep-24 09:32N 39°29' W 000°04'112 4.1
2016-Sep-23 06:33N 40°46' E 001°42'2311.7
2016-Sep-23 04:33N 41°00' E 002°07'1211.4
2016-Sep-23 03:31N 41°08' E 002°18'8611.7
2016-Sep-22 20:06N 42°06' E 003°44'8911.8
2016-Sep-22 12:33N 43°17' E 004°59'11 1.3
2016-Sep-22 04:32N 43°25' E 004°50'0 0.0
2016-Sep-22 03:32N 43°25' E 004°50'0 0.0
2016-Sep-22 00:32N 43°25' E 004°50'0 0.0
2016-Sep-21 23:32N 43°25' E 004°50'0 0.0
2016-Sep-21 22:32N 43°25' E 004°50'0 0.0
2016-Sep-21 19:29N 43°25' E 004°50'1 0.4
2016-Sep-21 16:33N 43°24' E 004°52'9913.7
2016-Sep-21 09:21N 43°13' E 007°07'2220.6
2016-Sep-21 08:17N 43°26' E 007°31'5419.9
2016-Sep-21 05:33N 44°01' E 008°28'2813.6
2016-Sep-21 03:32N 44°25' E 008°47'0 0.0
2016-Sep-21 02:32N 44°25' E 008°47'0 0.0
2016-Sep-20 17:32N 44°25' E 008°47'0 0.0
2016-Sep-20 14:32N 44°25' E 008°47'0 0.0
2016-Sep-20 13:32N 44°25' E 008°47'0 0.1
2016-Sep-20 10:33N 44°25' E 008°47'3 1.7
2016-Sep-20 08:33N 44°23' E 008°43'10 9.9
2016-Sep-20 07:33N 44°16' E 008°53'1010.4
2016-Sep-20 06:33N 44°09' E 009°03'4711.8
2016-Sep-20 02:34N 43°35' E 009°48'22 7.3
2016-Sep-19 23:33N 43°35' E 010°18'0 0.0
2016-Sep-19 19:30N 43°35' E 010°18'0 0.0
2016-Sep-19 18:33N 43°35' E 010°18'0 0.0
2016-Sep-19 16:24N 43°35' E 010°18'0 0.0
2016-Sep-19 14:33N 43°35' E 010°18'0 0.0
2016-Sep-19 13:33N 43°35' E 010°18'0 0.0
2016-Sep-19 12:33N 43°35' E 010°18'0 0.0
2016-Sep-19 11:33N 43°35' E 010°18'0 0.0
2016-Sep-19 09:33N 43°35' E 010°18'0 0.0
2016-Sep-19 07:30N 43°35' E 010°18'2 1.7
2016-Sep-19 06:34N 43°33' E 010°18'2 0.8
2016-Sep-19 03:31N 43°31' E 010°17'0 0.0
2016-Sep-19 02:31N 43°31' E 010°17'0 0.0
2016-Sep-19 00:31N 43°31' E 010°17'0 0.0
2016-Sep-18 19:31N 43°31' E 010°17'0 0.0
2016-Sep-18 15:31N 43°31' E 010°17'0 0.0
2016-Sep-18 14:31N 43°31' E 010°17'0 0.0
2016-Sep-18 10:31N 43°31' E 010°17'0 0.1
2016-Sep-18 09:31N 43°31' E 010°17'0 0.0
2016-Sep-18 02:31N 43°31' E 010°17'0 0.0
2016-Sep-18 01:31N 43°31' E 010°17'0 0.0
2016-Sep-18 00:25N 43°31' E 010°17'0 0.0
2016-Sep-17 22:31N 43°31' E 010°17'0 0.0
2016-Sep-17 21:31N 43°31' E 010°17'0 0.0
2016-Sep-17 20:31N 43°31' E 010°17'0 0.0
2016-Sep-17 19:16N 43°31' E 010°17'  
Track history (hours):
 
Tides and Currents Weather Stations Pressure Air Temp Water Temp Dewpoint Dewpoint Depression Visibility Wind Speed Wind Dir Waves Ship Positions

MSC Gina

Last reported at 2016-Sep-27 14:06 UTC. Time now 2016-Sep-27 18:57 UTC.
Position N 34°51' W 007°35'.

Length 259 m; draft 12.2 m.

Type: Ship (hazmat cat A). MMSI: 357542000.

Date/timePositionNaut miles runAvg speedWind from/ knotsBaromVisibWave heightAir tempDewpointWater temp
2016-Sep-27 14:06N 34°51' W 007°35'1018.8
2016-Sep-27 13:33N 34°59' W 007°27'22917.5
2016-Sep-27 00:28N 36°20' W 003°03'6917.5
2016-Sep-26 20:33N 36°45' W 001°43'1818.4
2016-Sep-26 19:33N 36°57' W 001°26'7518.1
2016-Sep-26 15:26N 37°50' W 000°21'9614.0
2016-Sep-26 08:34N 39°26' W 000°19'1 0.1
2016-Sep-26 02:24N 39°26' W 000°19'0 0.0
2016-Sep-26 01:33N 39°26' W 000°19'0 0.0
2016-Sep-26 00:33N 39°26' W 000°19'0 0.0
2016-Sep-25 21:33N 39°26' W 000°19'0 0.0
2016-Sep-25 17:09N 39°26' W 000°19'0 0.0
2016-Sep-25 16:27N 39°26' W 000°19'0 0.0
2016-Sep-25 15:33N 39°26' W 000°19'0 0.0
2016-Sep-25 14:33N 39°26' W 000°19'0 0.0
2016-Sep-25 12:33N 39°26' W 000°19'0 0.0
2016-Sep-25 11:33N 39°26' W 000°19'0 0.0
2016-Sep-25 10:33N 39°26' W 000°19'0 0.2
2016-Sep-25 09:33N 39°26' W 000°19'0 0.1
2016-Sep-25 07:33N 39°26' W 000°20'0 0.0
2016-Sep-25 04:27N 39°26' W 000°20'0 0.0
2016-Sep-25 00:24N 39°26' W 000°20'0 0.0
2016-Sep-24 22:33N 39°26' W 000°20'0 0.0
2016-Sep-24 21:33N 39°26' W 000°20'0 0.0
2016-Sep-24 19:33N 39°26' W 000°20'0 0.0
2016-Sep-24 18:30N 39°26' W 000°20'0 0.0
2016-Sep-24 17:33N 39°26' W 000°20'0 0.0
2016-Sep-24 16:33N 39°26' W 000°20'0 0.1
2016-Sep-24 14:33N 39°26' W 000°19'12 5.8
2016-Sep-24 12:28N 39°25' W 000°04'3 1.4
2016-Sep-24 10:08N 39°27' E 000°00'4 6.8
2016-Sep-24 09:32N 39°29' W 000°04'112 4.1
2016-Sep-23 06:33N 40°46' E 001°42'2311.7
2016-Sep-23 04:33N 41°00' E 002°07'1211.4
2016-Sep-23 03:31N 41°08' E 002°18'8611.7
2016-Sep-22 20:06N 42°06' E 003°44'8911.8
2016-Sep-22 12:33N 43°17' E 004°59'11 1.3
2016-Sep-22 04:32N 43°25' E 004°50'0 0.0
2016-Sep-22 03:32N 43°25' E 004°50'0 0.0
2016-Sep-22 00:32N 43°25' E 004°50'0 0.0
2016-Sep-21 23:32N 43°25' E 004°50'0 0.0
2016-Sep-21 22:32N 43°25' E 004°50'0 0.0
2016-Sep-21 19:29N 43°25' E 004°50'1 0.4
2016-Sep-21 16:33N 43°24' E 004°52'9913.7
2016-Sep-21 09:21N 43°13' E 007°07'2220.6
2016-Sep-21 08:17N 43°26' E 007°31'5419.9
2016-Sep-21 05:33N 44°01' E 008°28'2813.6
2016-Sep-21 03:32N 44°25' E 008°47'0 0.0
2016-Sep-21 02:32N 44°25' E 008°47'0 0.0
2016-Sep-20 17:32N 44°25' E 008°47'0 0.0
2016-Sep-20 14:32N 44°25' E 008°47'0 0.0
2016-Sep-20 13:32N 44°25' E 008°47'0 0.1
2016-Sep-20 10:33N 44°25' E 008°47'3 1.7
2016-Sep-20 08:33N 44°23' E 008°43'10 9.9
2016-Sep-20 07:33N 44°16' E 008°53'1010.4
2016-Sep-20 06:33N 44°09' E 009°03'4711.8
2016-Sep-20 02:34N 43°35' E 009°48'22 7.3
2016-Sep-19 23:33N 43°35' E 010°18'0 0.0
2016-Sep-19 19:30N 43°35' E 010°18'0 0.0
2016-Sep-19 18:33N 43°35' E 010°18'0 0.0
2016-Sep-19 16:24N 43°35' E 010°18'0 0.0
2016-Sep-19 14:33N 43°35' E 010°18'0 0.0
2016-Sep-19 13:33N 43°35' E 010°18'0 0.0
2016-Sep-19 12:33N 43°35' E 010°18'0 0.0
2016-Sep-19 11:33N 43°35' E 010°18'0 0.0
2016-Sep-19 09:33N 43°35' E 010°18'0 0.0
2016-Sep-19 07:30N 43°35' E 010°18'2 1.7
2016-Sep-19 06:34N 43°33' E 010°18'2 0.8
2016-Sep-19 03:31N 43°31' E 010°17'0 0.0
2016-Sep-19 02:31N 43°31' E 010°17'0 0.0
2016-Sep-19 00:31N 43°31' E 010°17'0 0.0
2016-Sep-18 19:31N 43°31' E 010°17'0 0.0
2016-Sep-18 15:31N 43°31' E 010°17'0 0.0
2016-Sep-18 14:31N 43°31' E 010°17'0 0.0
2016-Sep-18 10:31N 43°31' E 010°17'0 0.1
2016-Sep-18 09:31N 43°31' E 010°17'0 0.0
2016-Sep-18 02:31N 43°31' E 010°17'0 0.0
2016-Sep-18 01:31N 43°31' E 010°17'0 0.0
2016-Sep-18 00:25N 43°31' E 010°17'0 0.0
2016-Sep-17 22:31N 43°31' E 010°17'0 0.0
2016-Sep-17 21:31N 43°31' E 010°17'0 0.0
2016-Sep-17 20:31N 43°31' E 010°17'0 0.0
2016-Sep-17 19:16N 43°31' E 010°17'  

Dump ship's entire track history